createdAt,value
2022-10-26T00:00:25.794Z,24.16
2022-10-26T00:01:25.935Z,24.15
2022-10-26T00:02:25.834Z,24.15
2022-10-26T00:03:25.918Z,24.16
2022-10-26T00:04:25.858Z,24.15
2022-10-26T00:05:25.709Z,24.13
2022-10-26T00:06:25.731Z,24.15
2022-10-26T00:07:25.677Z,24.16
2022-10-26T00:08:25.672Z,24.15
2022-10-26T00:09:25.864Z,24.13
2022-10-26T00:10:28.237Z,24.12
2022-10-26T00:11:26.623Z,24.10
2022-10-26T00:12:25.614Z,24.09
2022-10-26T00:13:25.614Z,24.12
2022-10-26T00:14:25.618Z,24.09
2022-10-26T00:15:25.618Z,24.09
2022-10-26T00:16:25.642Z,24.09
2022-10-26T00:17:25.558Z,24.10
2022-10-26T00:18:25.526Z,24.09
2022-10-26T00:19:25.617Z,24.06
2022-10-26T00:20:25.499Z,24.09
2022-10-26T00:21:25.567Z,24.09
2022-10-26T00:22:25.636Z,24.09
2022-10-26T00:23:25.457Z,24.08
2022-10-26T00:24:25.697Z,24.08
2022-10-26T00:25:25.447Z,24.06
2022-10-26T00:26:25.408Z,24.10
2022-10-26T00:27:25.454Z,24.08
2022-10-26T00:28:25.498Z,24.08
2022-10-26T00:29:25.411Z,24.08
2022-10-26T00:30:25.418Z,24.06
2022-10-26T00:31:25.355Z,24.08
2022-10-26T00:32:25.356Z,24.09
2022-10-26T00:33:25.380Z,24.05
2022-10-26T00:34:25.404Z,24.03
2022-10-26T00:35:41.401Z,24.05
2022-10-26T00:36:26.300Z,24.05
2022-10-26T00:37:25.264Z,24.03
2022-10-26T00:38:25.260Z,24.03
2022-10-26T00:39:25.392Z,24.05
2022-10-26T00:40:25.472Z,24.05
2022-10-26T00:41:25.220Z,24.05
2022-10-26T00:42:25.189Z,24.05
2022-10-26T00:43:25.190Z,24.03
2022-10-26T00:44:25.172Z,24.05
2022-10-26T00:45:25.212Z,24.03
2022-10-26T00:46:25.279Z,24.02
2022-10-26T00:47:25.130Z,24.02
2022-10-26T00:48:25.109Z,24.03
2022-10-26T00:49:25.113Z,24.03
2022-10-26T00:50:25.092Z,24.02
2022-10-26T00:51:25.199Z,24.00
2022-10-26T00:52:25.266Z,23.97
2022-10-26T00:53:25.075Z,24.02
2022-10-26T00:54:25.035Z,23.97
2022-10-26T00:55:25.053Z,23.98
2022-10-26T00:56:25.009Z,23.98
2022-10-26T00:57:25.183Z,23.95
2022-10-26T00:58:25.185Z,23.97
2022-10-26T00:59:24.963Z,23.98
2022-10-26T01:00:24.953Z,23.98
2022-10-26T01:01:24.969Z,23.98
2022-10-26T01:02:24.937Z,23.95
2022-10-26T01:03:25.067Z,23.95
2022-10-26T01:04:25.104Z,23.95
2022-10-26T01:05:24.913Z,23.97
2022-10-26T01:06:24.923Z,23.93
2022-10-26T01:07:24.869Z,23.95
2022-10-26T01:08:24.839Z,23.97
2022-10-26T01:09:24.876Z,23.94
2022-10-26T01:10:25.083Z,23.93
2022-10-26T01:11:24.803Z,23.94
2022-10-26T01:12:24.797Z,23.95
2022-10-26T01:13:24.776Z,23.94
2022-10-26T01:14:24.763Z,23.94
2022-10-26T01:15:24.785Z,23.91
2022-10-26T01:16:24.815Z,23.90
2022-10-26T01:17:24.812Z,23.93
2022-10-26T01:18:24.701Z,23.88
2022-10-26T01:19:24.692Z,23.90
2022-10-26T01:20:24.695Z,23.90
2022-10-26T01:21:24.723Z,23.90
2022-10-26T01:22:25.161Z,23.91
2022-10-26T01:23:24.649Z,23.90
2022-10-26T01:24:24.621Z,23.91
2022-10-26T01:25:24.613Z,23.90
2022-10-26T01:26:24.600Z,23.90
2022-10-26T01:27:24.623Z,23.90
2022-10-26T01:28:24.670Z,23.87
2022-10-26T01:29:24.553Z,23.87
2022-10-26T01:30:24.541Z,23.88
2022-10-26T01:31:24.537Z,23.90
2022-10-26T01:32:25.283Z,23.90
2022-10-26T01:33:24.521Z,23.85
2022-10-26T01:34:24.674Z,23.88
2022-10-26T01:35:24.475Z,23.88
2022-10-26T01:36:24.486Z,23.85
2022-10-26T01:37:25.414Z,23.87
2022-10-26T01:38:24.458Z,23.87
2022-10-26T01:39:24.455Z,23.88
2022-10-26T01:40:24.629Z,23.84
2022-10-26T01:41:24.424Z,23.88
2022-10-26T01:42:24.999Z,23.87
2022-10-26T01:43:24.385Z,23.90
2022-10-26T01:44:24.350Z,23.87
2022-10-26T01:45:24.388Z,23.87
2022-10-26T01:46:24.476Z,23.90
2022-10-26T01:47:24.324Z,23.88
2022-10-26T01:48:24.302Z,23.90
2022-10-26T01:49:24.314Z,23.87
2022-10-26T01:50:24.285Z,23.85
2022-10-26T01:51:24.304Z,23.88
2022-10-26T01:52:24.516Z,23.85
2022-10-26T01:53:24.231Z,23.83
2022-10-26T01:54:24.266Z,23.87
2022-10-26T01:55:24.236Z,23.85
2022-10-26T01:56:24.183Z,23.84
2022-10-26T01:57:24.212Z,23.84
2022-10-26T01:58:24.243Z,23.84
2022-10-26T01:59:24.153Z,23.83
2022-10-26T02:00:24.135Z,23.84
2022-10-26T02:01:24.451Z,23.84
2022-10-26T02:02:24.139Z,23.83
2022-10-26T02:03:24.211Z,23.83
2022-10-26T02:05:24.068Z,23.83
2022-10-26T02:06:24.074Z,23.79
2022-10-26T02:07:24.043Z,23.80
2022-10-26T02:08:24.014Z,23.79
2022-10-26T02:09:24.038Z,23.80
2022-10-26T02:10:24.371Z,23.80
2022-10-26T02:11:24.016Z,23.80
2022-10-26T02:12:23.961Z,23.79
2022-10-26T02:13:23.947Z,23.80
2022-10-26T02:14:23.942Z,23.78
2022-10-26T02:15:23.974Z,23.79
2022-10-26T02:16:24.118Z,23.79
2022-10-26T02:17:23.898Z,23.76
2022-10-26T02:18:23.883Z,23.78
2022-10-26T02:19:23.910Z,23.76
2022-10-26T02:20:23.862Z,23.75
2022-10-26T02:21:23.891Z,23.78
2022-10-26T02:22:24.048Z,23.79
2022-10-26T02:23:23.814Z,23.79
2022-10-26T02:24:23.810Z,23.78
2022-10-26T02:25:23.806Z,23.76
2022-10-26T02:26:23.832Z,23.78
2022-10-26T02:27:23.804Z,23.75
2022-10-26T02:28:23.906Z,23.78
2022-10-26T02:29:23.730Z,23.78
2022-10-26T02:30:23.730Z,23.76
2022-10-26T02:31:23.708Z,23.79
2022-10-26T02:32:23.701Z,23.76
2022-10-26T02:33:23.696Z,23.75
2022-10-26T02:34:23.770Z,23.75
2022-10-26T02:35:23.651Z,23.75
2022-10-26T02:36:23.644Z,23.76
2022-10-26T02:37:23.630Z,23.75
2022-10-26T02:38:23.622Z,23.73
2022-10-26T02:39:23.662Z,23.75
2022-10-26T02:40:23.747Z,23.76
2022-10-26T02:41:23.579Z,23.75
2022-10-26T02:42:23.561Z,23.72
2022-10-26T02:43:23.570Z,23.73
2022-10-26T02:44:23.549Z,23.73
2022-10-26T02:45:23.552Z,23.73
2022-10-26T02:46:23.597Z,23.76
2022-10-26T02:47:23.488Z,23.72
2022-10-26T02:48:23.470Z,23.75
2022-10-26T02:49:23.483Z,23.70
2022-10-26T02:50:23.449Z,23.70
2022-10-26T02:51:23.482Z,23.70
2022-10-26T02:52:23.557Z,23.72
2022-10-26T02:53:23.396Z,23.70
2022-10-26T02:54:23.388Z,23.70
2022-10-26T02:55:23.435Z,23.68
2022-10-26T02:56:23.379Z,23.72
2022-10-26T02:57:23.386Z,23.70
2022-10-26T02:58:23.431Z,23.70
2022-10-26T02:59:23.323Z,23.72
2022-10-26T03:00:23.344Z,23.70
2022-10-26T03:01:23.342Z,23.68
2022-10-26T03:02:23.291Z,23.68
2022-10-26T03:03:23.296Z,23.68
2022-10-26T03:04:23.463Z,23.68
2022-10-26T03:05:23.343Z,23.69
2022-10-26T03:06:23.332Z,23.69
2022-10-26T03:07:23.219Z,23.66
2022-10-26T03:08:23.258Z,23.63
2022-10-26T03:09:25.464Z,23.65
2022-10-26T03:10:23.516Z,23.61
2022-10-26T03:11:23.162Z,23.65
2022-10-26T03:12:23.154Z,23.63
2022-10-26T03:13:23.157Z,23.65
2022-10-26T03:14:23.149Z,23.65
2022-10-26T03:15:23.151Z,23.63
2022-10-26T03:16:23.191Z,23.63
2022-10-26T03:17:23.083Z,23.63
2022-10-26T03:18:23.068Z,23.61
2022-10-26T03:19:23.060Z,23.61
2022-10-26T03:20:23.050Z,23.58
2022-10-26T03:21:23.095Z,23.63
2022-10-26T03:22:23.160Z,23.61
2022-10-26T03:23:22.989Z,23.60
2022-10-26T03:24:22.993Z,23.61
2022-10-26T03:25:23.007Z,23.61
2022-10-26T03:26:22.981Z,23.65
2022-10-26T03:27:22.975Z,23.61
2022-10-26T03:28:23.033Z,23.57
2022-10-26T03:29:22.946Z,23.61
2022-10-26T03:30:23.047Z,23.60
2022-10-26T03:31:22.904Z,23.58
2022-10-26T03:32:22.867Z,23.58
2022-10-26T03:33:25.634Z,23.58
2022-10-26T03:34:23.939Z,23.58
2022-10-26T03:35:22.870Z,23.58
2022-10-26T03:36:22.824Z,23.57
2022-10-26T03:37:22.815Z,23.60
2022-10-26T03:38:22.798Z,23.55
2022-10-26T03:39:22.803Z,23.54
2022-10-26T03:40:22.955Z,23.58
2022-10-26T03:41:22.775Z,23.58
2022-10-26T03:42:22.766Z,23.58
2022-10-26T03:43:22.714Z,23.55
2022-10-26T03:44:22.732Z,23.55
2022-10-26T03:45:22.745Z,23.58
2022-10-26T03:46:22.827Z,23.55
2022-10-26T03:47:22.660Z,23.57
2022-10-26T03:48:22.660Z,23.54
2022-10-26T03:49:22.667Z,23.55
2022-10-26T03:50:22.632Z,23.54
2022-10-26T03:51:22.702Z,23.54
2022-10-26T03:52:22.847Z,23.54
2022-10-26T03:53:22.579Z,23.54
2022-10-26T03:54:22.578Z,23.53
2022-10-26T03:55:22.562Z,23.54
2022-10-26T03:56:22.549Z,23.51
2022-10-26T03:57:22.595Z,23.53
2022-10-26T03:58:22.798Z,23.51
2022-10-26T03:59:22.511Z,23.53
2022-10-26T04:00:22.518Z,23.54
2022-10-26T04:01:22.585Z,23.51
2022-10-26T04:02:22.473Z,23.53
2022-10-26T04:03:22.490Z,23.53
2022-10-26T04:04:22.718Z,23.53
2022-10-26T04:05:22.432Z,23.53
2022-10-26T04:06:22.479Z,23.51
2022-10-26T04:07:22.436Z,23.54
2022-10-26T04:08:22.378Z,23.54
2022-10-26T04:09:23.363Z,23.51
2022-10-26T04:10:22.629Z,23.48
2022-10-26T04:11:22.387Z,23.50
2022-10-26T04:12:22.326Z,23.51
2022-10-26T04:13:22.312Z,23.50
2022-10-26T04:14:22.310Z,23.47
2022-10-26T04:15:22.455Z,23.50
2022-10-26T04:16:22.399Z,23.50
2022-10-26T04:17:22.282Z,23.48
2022-10-26T04:18:22.327Z,23.47
2022-10-26T04:19:22.222Z,23.50
2022-10-26T04:20:22.287Z,23.50
2022-10-26T04:21:22.309Z,23.50
2022-10-26T04:22:22.402Z,23.50
2022-10-26T04:23:22.244Z,23.50
2022-10-26T04:24:22.156Z,23.48
2022-10-26T04:25:22.401Z,23.48
2022-10-26T04:26:22.140Z,23.46
2022-10-26T04:27:22.149Z,23.46
2022-10-26T04:28:22.375Z,23.47
2022-10-26T04:29:22.100Z,23.46
2022-10-26T04:30:22.139Z,23.47
2022-10-26T04:31:22.106Z,23.50
2022-10-26T04:32:22.051Z,23.47
2022-10-26T04:33:22.102Z,23.47
2022-10-26T04:34:22.117Z,23.47
2022-10-26T04:35:22.017Z,23.48
2022-10-26T04:36:22.018Z,23.48
2022-10-26T04:37:21.988Z,23.46
2022-10-26T04:38:21.972Z,23.47
2022-10-26T04:39:21.976Z,23.48
2022-10-26T04:40:22.266Z,23.48
2022-10-26T04:41:21.934Z,23.46
2022-10-26T04:42:21.938Z,23.48
2022-10-26T04:43:21.918Z,23.50
2022-10-26T04:44:21.892Z,23.50
2022-10-26T04:45:22.024Z,23.53
2022-10-26T04:46:21.997Z,23.50
2022-10-26T04:47:21.866Z,23.51
2022-10-26T04:48:21.859Z,23.51
2022-10-26T04:49:21.828Z,23.54
2022-10-26T04:50:23.773Z,23.54
2022-10-26T04:51:21.906Z,23.55
2022-10-26T04:52:21.919Z,23.53
2022-10-26T04:53:21.772Z,23.55
2022-10-26T04:54:21.754Z,23.57
2022-10-26T04:55:21.772Z,23.58
2022-10-26T04:56:21.731Z,23.60
2022-10-26T04:57:21.738Z,23.58
2022-10-26T04:58:21.812Z,23.61
2022-10-26T04:59:21.692Z,23.61
2022-10-26T05:00:22.055Z,23.58
2022-10-26T05:01:21.749Z,23.61
2022-10-26T05:02:21.764Z,23.63
2022-10-26T05:03:21.672Z,23.63
2022-10-26T05:04:21.825Z,23.63
2022-10-26T05:05:21.803Z,23.63
2022-10-26T05:06:21.594Z,23.66
2022-10-26T05:07:21.572Z,23.66
2022-10-26T05:08:21.557Z,23.65
2022-10-26T05:09:21.589Z,23.69
2022-10-26T05:10:21.872Z,23.66
2022-10-26T05:11:21.528Z,23.68
2022-10-26T05:12:21.511Z,23.70
2022-10-26T05:13:21.525Z,23.68
2022-10-26T05:14:21.474Z,23.72
2022-10-26T05:15:21.528Z,23.69
2022-10-26T05:16:21.662Z,23.75
2022-10-26T05:17:21.435Z,23.70
2022-10-26T05:18:21.416Z,23.73
2022-10-26T05:19:21.412Z,23.73
2022-10-26T05:20:21.430Z,23.73
2022-10-26T05:21:21.592Z,23.75
2022-10-26T05:22:21.506Z,23.76
2022-10-26T05:23:21.355Z,23.76
2022-10-26T05:24:21.337Z,23.76
2022-10-26T05:25:21.330Z,23.78
2022-10-26T05:26:21.323Z,23.76
2022-10-26T05:27:21.333Z,23.79
2022-10-26T05:28:21.454Z,23.78
2022-10-26T05:29:21.272Z,23.78
2022-10-26T05:30:21.286Z,23.79
2022-10-26T05:31:21.241Z,23.80
2022-10-26T05:32:21.270Z,23.79
2022-10-26T05:33:21.243Z,23.78
2022-10-26T05:34:21.426Z,23.80
2022-10-26T05:35:21.193Z,23.79
2022-10-26T05:36:21.191Z,23.80
2022-10-26T05:37:21.179Z,23.79
2022-10-26T05:38:21.172Z,23.83
2022-10-26T05:39:21.203Z,23.83
2022-10-26T05:40:21.353Z,23.83
2022-10-26T05:41:21.122Z,23.84
2022-10-26T05:42:21.089Z,23.84
2022-10-26T05:43:21.095Z,23.83
2022-10-26T05:44:21.073Z,23.83
2022-10-26T05:45:21.166Z,23.84
2022-10-26T05:46:21.189Z,23.83
2022-10-26T05:47:21.027Z,23.88
2022-10-26T05:48:21.019Z,23.87
2022-10-26T05:49:20.994Z,23.88
2022-10-26T05:50:21.014Z,23.90
2022-10-26T05:51:21.171Z,23.91
2022-10-26T05:52:21.099Z,23.91
2022-10-26T05:53:20.938Z,23.93
2022-10-26T05:54:20.930Z,23.91
2022-10-26T05:55:20.928Z,23.93
2022-10-26T05:56:20.915Z,23.93
2022-10-26T05:57:20.908Z,23.94
2022-10-26T05:58:21.056Z,23.91
2022-10-26T05:59:20.853Z,23.93
2022-10-26T06:00:20.866Z,23.94
2022-10-26T06:01:20.970Z,23.94
2022-10-26T06:02:20.957Z,23.94
2022-10-26T06:03:20.965Z,23.93
2022-10-26T06:04:20.958Z,23.94
2022-10-26T06:05:20.796Z,23.94
2022-10-26T06:06:20.766Z,23.94
2022-10-26T06:07:20.748Z,23.95
2022-10-26T06:08:20.755Z,23.94
2022-10-26T06:09:20.776Z,23.95
2022-10-26T06:10:20.934Z,23.94
2022-10-26T06:11:20.703Z,23.97
2022-10-26T06:12:20.677Z,23.95
2022-10-26T06:13:20.742Z,23.97
2022-10-26T06:14:20.653Z,23.97
2022-10-26T06:15:20.674Z,23.94
2022-10-26T06:16:20.719Z,23.97
2022-10-26T06:17:20.610Z,23.95
2022-10-26T06:18:20.636Z,23.97
2022-10-26T06:19:20.583Z,23.97
2022-10-26T06:20:20.595Z,23.97
2022-10-26T06:21:20.623Z,23.98
2022-10-26T06:22:20.711Z,23.95
2022-10-26T06:23:21.041Z,24.00
2022-10-26T06:24:20.518Z,23.97
2022-10-26T06:25:20.511Z,23.97
2022-10-26T06:26:20.488Z,24.00
2022-10-26T06:27:20.580Z,23.98
2022-10-26T06:28:20.932Z,23.98
2022-10-26T06:29:20.449Z,24.00
2022-10-26T06:30:20.454Z,24.00
2022-10-26T06:31:20.465Z,24.00
2022-10-26T06:32:20.406Z,23.98
2022-10-26T06:33:35.518Z,24.00
2022-10-26T06:34:21.479Z,24.02
2022-10-26T06:35:20.387Z,24.00
2022-10-26T06:36:20.363Z,23.98
2022-10-26T06:37:20.345Z,24.02
2022-10-26T06:38:20.332Z,24.00
2022-10-26T06:39:20.375Z,24.02
2022-10-26T06:40:20.399Z,23.98
2022-10-26T06:41:20.346Z,24.00
2022-10-26T06:42:20.288Z,24.00
2022-10-26T06:43:20.259Z,24.00
2022-10-26T06:44:20.240Z,24.02
2022-10-26T06:45:20.258Z,24.02
2022-10-26T06:46:20.414Z,24.03
2022-10-26T06:47:23.408Z,24.02
2022-10-26T06:48:20.225Z,23.98
2022-10-26T06:49:20.176Z,24.02
2022-10-26T06:50:20.174Z,24.02
2022-10-26T06:51:20.217Z,24.05
2022-10-26T06:52:20.394Z,24.00
2022-10-26T06:53:20.136Z,24.03
2022-10-26T06:54:20.111Z,24.00
2022-10-26T06:55:20.131Z,24.03
2022-10-26T06:56:20.104Z,24.00
2022-10-26T06:57:20.097Z,24.05
2022-10-26T06:58:20.407Z,23.98
2022-10-26T06:59:20.061Z,24.03
2022-10-26T07:00:20.159Z,24.05
2022-10-26T07:01:20.159Z,24.03
2022-10-26T07:02:20.210Z,24.02
2022-10-26T07:03:20.032Z,24.02
2022-10-26T07:04:20.113Z,24.05
2022-10-26T07:05:19.985Z,24.05
2022-10-26T07:07:19.938Z,24.05
2022-10-26T07:08:19.916Z,24.05
2022-10-26T07:09:19.995Z,24.06
2022-10-26T07:10:19.987Z,24.05
2022-10-26T07:11:19.886Z,24.05
2022-10-26T07:12:19.881Z,24.05
2022-10-26T07:13:19.857Z,24.03
2022-10-26T07:14:19.844Z,24.05
2022-10-26T07:15:19.911Z,24.05
2022-10-26T07:16:19.896Z,24.06
2022-10-26T07:17:19.825Z,24.05
2022-10-26T07:18:19.785Z,24.06
2022-10-26T07:19:19.793Z,24.06
2022-10-26T07:20:19.744Z,24.06
2022-10-26T07:21:19.825Z,24.05
2022-10-26T07:22:19.888Z,24.06
2022-10-26T07:23:19.802Z,24.06
2022-10-26T07:24:19.701Z,24.08
2022-10-26T07:25:19.704Z,24.06
2022-10-26T07:26:19.739Z,24.08
2022-10-26T07:27:19.698Z,24.10
2022-10-26T07:28:19.807Z,24.09
2022-10-26T07:29:19.644Z,24.08
2022-10-26T07:30:19.622Z,24.08
2022-10-26T07:31:19.661Z,24.09
2022-10-26T07:32:19.601Z,24.15
2022-10-26T07:33:19.771Z,24.09
2022-10-26T07:34:19.649Z,24.15
2022-10-26T07:35:19.560Z,24.10
2022-10-26T07:36:19.570Z,24.10
2022-10-26T07:37:19.525Z,24.10
2022-10-26T07:38:19.510Z,24.13
2022-10-26T07:39:19.580Z,24.16
2022-10-26T07:40:19.600Z,24.16
2022-10-26T07:41:19.493Z,24.16
2022-10-26T07:42:19.449Z,24.16
2022-10-26T07:43:19.456Z,24.22
2022-10-26T07:44:19.430Z,24.20
2022-10-26T07:45:19.439Z,24.21
2022-10-26T07:46:19.497Z,24.22
2022-10-26T07:47:19.396Z,24.25
2022-10-26T07:48:19.373Z,24.27
2022-10-26T07:49:19.756Z,24.27
2022-10-26T07:50:19.368Z,24.28
2022-10-26T07:51:19.365Z,24.30
2022-10-26T07:52:19.406Z,24.28
2022-10-26T07:53:20.479Z,24.30
2022-10-26T07:54:19.289Z,24.34
2022-10-26T07:55:19.287Z,24.32
2022-10-26T07:56:19.300Z,24.35
2022-10-26T07:57:19.317Z,24.37
2022-10-26T07:58:19.321Z,24.37
2022-10-26T07:59:19.232Z,24.39
2022-10-26T08:00:19.229Z,24.35
2022-10-26T08:01:19.322Z,24.43
2022-10-26T08:02:19.185Z,24.40
2022-10-26T08:03:19.218Z,24.42
2022-10-26T08:04:19.240Z,24.43
2022-10-26T08:05:19.207Z,24.46
2022-10-26T08:06:19.206Z,24.45
2022-10-26T08:07:19.130Z,24.47
2022-10-26T08:08:19.101Z,24.49
2022-10-26T08:09:19.112Z,24.49
2022-10-26T08:10:19.142Z,24.50
2022-10-26T08:11:19.070Z,24.52
2022-10-26T08:12:19.066Z,24.53
2022-10-26T08:13:19.023Z,24.58
2022-10-26T08:14:19.017Z,24.60
2022-10-26T08:15:19.045Z,24.58
2022-10-26T08:16:19.139Z,24.60
2022-10-26T08:17:18.980Z,24.65
2022-10-26T08:18:18.963Z,24.64
2022-10-26T08:19:18.969Z,24.68
2022-10-26T08:20:18.947Z,24.73
2022-10-26T08:21:22.083Z,24.78
2022-10-26T08:22:19.992Z,24.77
2022-10-26T08:23:18.910Z,24.78
2022-10-26T08:24:18.879Z,24.83
2022-10-26T08:25:21.270Z,24.84
2022-10-26T08:26:18.858Z,24.87
2022-10-26T08:27:18.877Z,24.91
2022-10-26T08:28:18.916Z,24.95
2022-10-26T08:29:18.838Z,24.98
2022-10-26T08:30:18.807Z,25.02
2022-10-26T08:31:18.798Z,25.06
2022-10-26T08:32:18.770Z,25.09
2022-10-26T08:33:18.804Z,25.09
2022-10-26T08:34:18.893Z,25.13
2022-10-26T08:35:18.740Z,25.17
2022-10-26T08:36:18.711Z,25.20
2022-10-26T08:37:18.703Z,25.23
2022-10-26T08:38:18.692Z,25.24
2022-10-26T08:39:18.886Z,25.24
2022-10-26T08:40:18.763Z,25.28
2022-10-26T08:41:18.668Z,25.33
2022-10-26T08:42:18.639Z,25.36
2022-10-26T08:43:18.621Z,25.40
2022-10-26T08:44:18.631Z,25.42
2022-10-26T08:45:18.624Z,25.45
2022-10-26T08:46:18.661Z,25.47
2022-10-26T08:48:18.561Z,25.54
2022-10-26T08:49:18.540Z,25.58
2022-10-26T08:50:18.524Z,25.57
2022-10-26T08:51:18.549Z,25.61
2022-10-26T08:52:18.653Z,25.60
2022-10-26T08:53:18.490Z,25.64
2022-10-26T08:54:18.472Z,25.65
2022-10-26T08:55:18.479Z,25.69
2022-10-26T08:56:18.438Z,25.69
2022-10-26T08:57:18.627Z,25.72
2022-10-26T08:58:18.559Z,25.76
2022-10-26T08:59:18.399Z,25.75
2022-10-26T09:00:18.423Z,25.73
2022-10-26T09:01:18.518Z,25.76
2022-10-26T09:02:18.367Z,25.79
2022-10-26T09:03:18.384Z,25.82
2022-10-26T09:04:18.463Z,25.82
2022-10-26T09:05:18.332Z,25.83
2022-10-26T09:06:18.311Z,25.83
2022-10-26T09:07:18.305Z,25.85
2022-10-26T09:08:18.289Z,25.88
2022-10-26T09:09:18.328Z,25.88
2022-10-26T09:10:18.457Z,25.92
2022-10-26T09:11:18.264Z,25.92
2022-10-26T09:12:18.255Z,25.95
2022-10-26T09:13:18.220Z,25.97
2022-10-26T09:14:18.214Z,25.95
2022-10-26T09:15:18.242Z,25.97
2022-10-26T09:16:18.283Z,25.97
2022-10-26T09:17:18.164Z,26.01
2022-10-26T09:18:18.145Z,25.99
2022-10-26T09:19:18.136Z,25.98
2022-10-26T09:20:18.136Z,26.05
2022-10-26T09:21:18.253Z,26.05
2022-10-26T09:22:18.255Z,26.01
2022-10-26T09:23:18.098Z,26.07
2022-10-26T09:24:18.085Z,26.09
2022-10-26T09:25:18.081Z,26.09
2022-10-26T09:26:18.664Z,26.10
2022-10-26T09:27:18.079Z,26.10
2022-10-26T09:28:18.218Z,26.12
2022-10-26T09:29:18.001Z,26.15
2022-10-26T09:30:18.091Z,26.17
2022-10-26T09:31:17.981Z,26.20
2022-10-26T09:32:18.041Z,26.21
2022-10-26T09:33:17.967Z,26.25
2022-10-26T09:34:18.006Z,26.25
2022-10-26T09:35:17.966Z,26.26
2022-10-26T09:36:17.926Z,26.28
2022-10-26T09:37:17.886Z,26.29
2022-10-26T09:38:17.876Z,26.30
2022-10-26T09:39:17.940Z,26.33
2022-10-26T09:40:18.040Z,26.33
2022-10-26T09:41:18.179Z,26.35
2022-10-26T09:42:17.828Z,26.35
2022-10-26T09:43:17.830Z,26.39
2022-10-26T09:44:17.792Z,26.35
2022-10-26T09:45:17.975Z,26.37
2022-10-26T09:46:17.917Z,26.43
2022-10-26T09:47:17.744Z,26.39
2022-10-26T09:48:17.740Z,26.43
2022-10-26T09:49:17.725Z,26.45
2022-10-26T09:50:18.118Z,26.44
2022-10-26T09:51:18.612Z,26.47
2022-10-26T09:52:17.842Z,26.45
2022-10-26T09:53:17.676Z,26.48
2022-10-26T09:54:17.657Z,26.51
2022-10-26T09:55:18.991Z,26.48
2022-10-26T09:56:17.634Z,26.50
2022-10-26T09:57:17.671Z,26.52
2022-10-26T09:58:17.828Z,26.52
2022-10-26T09:59:17.592Z,26.55
2022-10-26T10:00:17.650Z,26.54
2022-10-26T10:01:17.626Z,26.52
2022-10-26T10:02:17.547Z,26.55
2022-10-26T10:03:17.641Z,26.58
2022-10-26T10:04:17.684Z,26.55
2022-10-26T10:05:27.164Z,26.58
2022-10-26T10:06:18.628Z,26.57
2022-10-26T10:07:17.540Z,26.62
2022-10-26T10:08:17.472Z,26.62
2022-10-26T10:09:17.624Z,26.60
2022-10-26T10:10:17.638Z,26.60
2022-10-26T10:11:17.437Z,26.63
2022-10-26T10:12:17.442Z,26.63
2022-10-26T10:13:17.406Z,26.65
2022-10-26T10:14:17.390Z,26.67
2022-10-26T10:15:17.417Z,26.67
2022-10-26T10:16:17.451Z,26.66
2022-10-26T10:18:17.331Z,26.69
2022-10-26T10:19:17.335Z,26.70
2022-10-26T10:20:17.343Z,26.72
2022-10-26T10:21:17.369Z,26.75
2022-10-26T10:22:17.381Z,26.73
2022-10-26T10:23:17.282Z,26.73
2022-10-26T10:24:17.252Z,26.73
2022-10-26T10:25:17.303Z,26.76
2022-10-26T10:26:17.247Z,26.77
2022-10-26T10:27:17.289Z,26.80
2022-10-26T10:28:17.342Z,26.82
2022-10-26T10:29:17.182Z,26.81
2022-10-26T10:30:17.188Z,26.82
2022-10-26T10:31:17.343Z,26.84
2022-10-26T10:32:17.141Z,26.85
2022-10-26T10:33:18.221Z,26.85
2022-10-26T10:34:17.201Z,26.89
2022-10-26T10:35:17.114Z,26.91
2022-10-26T10:36:17.094Z,26.89
2022-10-26T10:37:17.080Z,26.94
2022-10-26T10:38:17.077Z,26.99
2022-10-26T10:39:17.157Z,26.95
2022-10-26T10:40:18.833Z,26.99
2022-10-26T10:41:17.028Z,27.02
2022-10-26T10:42:17.003Z,26.99
2022-10-26T10:43:16.996Z,27.03
2022-10-26T10:44:17.029Z,27.03
2022-10-26T10:45:17.012Z,27.04
2022-10-26T10:46:17.108Z,27.03
2022-10-26T10:47:17.659Z,27.06
2022-10-26T10:48:16.932Z,27.06
2022-10-26T10:49:16.980Z,27.07
2022-10-26T10:50:16.910Z,27.12
2022-10-26T10:51:17.006Z,27.06
2022-10-26T10:52:16.995Z,27.09
2022-10-26T10:53:16.858Z,27.12
2022-10-26T10:54:17.380Z,27.10
2022-10-26T10:55:16.840Z,27.13
2022-10-26T10:56:16.826Z,27.14
2022-10-26T10:57:16.869Z,27.17
2022-10-26T10:58:16.939Z,27.18
2022-10-26T10:59:16.798Z,27.17
2022-10-26T11:00:16.788Z,27.18
2022-10-26T11:01:16.887Z,27.18
2022-10-26T11:02:16.882Z,27.19
2022-10-26T11:03:16.836Z,27.22
2022-10-26T11:04:16.839Z,27.19
2022-10-26T11:05:16.698Z,27.24
2022-10-26T11:06:16.687Z,27.24
2022-10-26T11:07:16.664Z,27.24
2022-10-26T11:08:16.681Z,27.27
2022-10-26T11:09:16.934Z,27.28
2022-10-26T11:10:16.791Z,27.27
2022-10-26T11:11:16.618Z,27.31
2022-10-26T11:12:16.605Z,27.29
2022-10-26T11:13:16.613Z,27.28
2022-10-26T11:14:16.999Z,27.32
2022-10-26T11:15:16.628Z,27.29
2022-10-26T11:16:16.637Z,27.29
2022-10-26T11:17:16.576Z,27.32
2022-10-26T11:18:16.523Z,27.32
2022-10-26T11:19:16.501Z,27.32
2022-10-26T11:20:16.559Z,27.36
2022-10-26T11:21:16.531Z,27.34
2022-10-26T11:22:16.611Z,27.32
2022-10-26T11:23:16.464Z,27.32
2022-10-26T11:24:16.439Z,27.31
2022-10-26T11:25:16.423Z,27.32
2022-10-26T11:26:16.412Z,27.34
2022-10-26T11:27:16.421Z,27.32
2022-10-26T11:28:16.496Z,27.32
2022-10-26T11:30:16.364Z,27.32
2022-10-26T11:31:16.342Z,27.34
2022-10-26T11:32:16.345Z,27.31
2022-10-26T11:33:16.352Z,27.34
2022-10-26T11:34:16.562Z,27.36
2022-10-26T11:35:16.286Z,27.34
2022-10-26T11:36:18.562Z,27.36
2022-10-26T11:37:16.271Z,27.36
2022-10-26T11:38:20.837Z,27.32
2022-10-26T11:39:17.281Z,27.36
2022-10-26T11:40:16.383Z,27.34
2022-10-26T11:41:16.212Z,27.32
2022-10-26T11:42:16.197Z,27.36
2022-10-26T11:43:16.185Z,27.34
2022-10-26T11:44:16.166Z,27.34
2022-10-26T11:45:16.206Z,27.36
2022-10-26T11:46:19.023Z,27.39
2022-10-26T11:47:16.150Z,27.39
2022-10-26T11:48:16.116Z,27.37
2022-10-26T11:49:16.089Z,27.37
2022-10-26T11:50:17.586Z,27.39
2022-10-26T11:51:16.134Z,27.37
2022-10-26T11:52:16.146Z,27.37
2022-10-26T11:53:16.061Z,27.41
2022-10-26T11:54:16.066Z,27.40
2022-10-26T11:55:16.022Z,27.41
2022-10-26T11:56:16.003Z,27.41
2022-10-26T11:57:16.365Z,27.43
2022-10-26T11:58:16.063Z,27.46
2022-10-26T11:59:15.975Z,27.47
2022-10-26T12:00:15.967Z,27.50
2022-10-26T12:01:15.996Z,27.47
2022-10-26T12:02:15.927Z,27.51
2022-10-26T12:03:15.962Z,27.51
2022-10-26T12:04:15.896Z,27.54
2022-10-26T12:05:15.894Z,27.51
2022-10-26T12:06:15.870Z,27.55
2022-10-26T12:07:15.876Z,27.51
2022-10-26T12:08:15.849Z,27.57
2022-10-26T12:09:16.333Z,27.55
2022-10-26T12:10:19.254Z,27.59
2022-10-26T12:11:15.819Z,27.60
2022-10-26T12:12:16.211Z,27.63
2022-10-26T12:13:15.775Z,27.63
2022-10-26T12:14:15.767Z,27.62
2022-10-26T12:15:15.820Z,27.63
2022-10-26T12:16:15.938Z,27.65
2022-10-26T12:17:15.726Z,27.66
2022-10-26T12:18:16.149Z,27.67
2022-10-26T12:19:15.772Z,27.67
2022-10-26T12:20:15.704Z,27.66
2022-10-26T12:21:15.696Z,27.67
2022-10-26T12:22:15.812Z,27.67
2022-10-26T12:23:23.165Z,27.70
2022-10-26T12:24:16.630Z,27.74
2022-10-26T12:25:15.827Z,27.72
2022-10-26T12:26:16.073Z,27.70
2022-10-26T12:27:16.253Z,27.72
2022-10-26T12:28:15.864Z,27.74
2022-10-26T12:29:15.571Z,27.72
2022-10-26T12:30:15.553Z,27.72
2022-10-26T12:31:17.654Z,27.75
2022-10-26T12:32:15.520Z,27.75
2022-10-26T12:33:15.561Z,27.75
2022-10-26T12:34:15.577Z,27.74
2022-10-26T12:35:15.490Z,27.70
2022-10-26T12:36:15.465Z,27.74
2022-10-26T12:37:16.277Z,27.72
2022-10-26T12:38:15.494Z,27.75
2022-10-26T12:39:15.483Z,27.70
2022-10-26T12:40:15.637Z,27.70
2022-10-26T12:41:15.454Z,27.74
2022-10-26T12:42:15.442Z,27.70
2022-10-26T12:43:15.400Z,27.74
2022-10-26T12:44:15.355Z,27.70
2022-10-26T12:45:15.586Z,27.72
2022-10-26T12:46:15.528Z,27.69
2022-10-26T12:47:16.181Z,27.69
2022-10-26T12:48:27.633Z,27.70
2022-10-26T12:49:16.335Z,27.70
2022-10-26T12:50:15.323Z,27.69
2022-10-26T12:51:15.357Z,27.70
2022-10-26T12:52:16.318Z,27.69
2022-10-26T12:53:15.266Z,27.69
2022-10-26T12:54:15.436Z,27.67
2022-10-26T12:55:15.218Z,27.69
2022-10-26T12:56:15.269Z,27.67
2022-10-26T12:57:15.319Z,27.66